sensor_id;sensor_type;location;lat;lon;timestamp;pressure;altitude;pressure_sealevel;temperature;humidity
7441;BME280;29616;51.950;8.572;2023-08-07T00:00:56;99354.16;;;14.58;100.00
7441;BME280;29616;51.950;8.572;2023-08-07T00:03:29;99354.84;;;14.67;100.00
7441;BME280;29616;51.950;8.572;2023-08-07T00:05:57;99357.84;;;14.50;100.00
7441;BME280;29616;51.950;8.572;2023-08-07T00:08:26;99350.06;;;14.54;100.00
7441;BME280;29616;51.950;8.572;2023-08-07T00:11:05;99347.81;;;14.57;100.00
7441;BME280;29616;51.950;8.572;2023-08-07T00:13:33;99333.53;;;14.47;100.00
7441;BME280;29616;51.950;8.572;2023-08-07T00:16:02;99346.22;;;14.48;100.00
7441;BME280;29616;51.950;8.572;2023-08-07T00:18:32;99342.03;;;14.52;100.00
7441;BME280;29616;51.950;8.572;2023-08-07T00:21:01;99343.94;;;14.52;100.00
7441;BME280;29616;51.950;8.572;2023-08-07T00:23:30;99352.44;;;14.57;100.00
7441;BME280;29616;51.950;8.572;2023-08-07T00:25:58;99352.34;;;14.50;100.00
7441;BME280;29616;51.950;8.572;2023-08-07T00:28:27;99344.97;;;14.51;100.00
7441;BME280;29616;51.950;8.572;2023-08-07T00:30:56;99328.56;;;14.36;100.00
7441;BME280;29616;51.950;8.572;2023-08-07T00:33:25;99339.59;;;14.43;100.00
7441;BME280;29616;51.950;8.572;2023-08-07T00:35:54;99345.94;;;14.43;100.00
7441;BME280;29616;51.950;8.572;2023-08-07T00:38:23;99357.22;;;14.48;100.00
7441;BME280;29616;51.950;8.572;2023-08-07T00:40:53;99355.78;;;14.52;100.00
7441;BME280;29616;51.950;8.572;2023-08-07T00:43:23;99365.16;;;14.58;100.00
7441;BME280;29616;51.950;8.572;2023-08-07T00:45:52;99361.03;;;14.47;100.00
7441;BME280;29616;51.950;8.572;2023-08-07T00:48:20;99359.56;;;14.51;100.00
7441;BME280;29616;51.950;8.572;2023-08-07T00:50:49;99356.81;;;14.51;100.00
7441;BME280;29616;51.950;8.572;2023-08-07T00:53:20;99366.78;;;14.52;100.00
7441;BME280;29616;51.950;8.572;2023-08-07T00:55:49;99354.72;;;14.53;100.00
7441;BME280;29616;51.950;8.572;2023-08-07T00:58:18;99347.78;;;14.36;100.00
7441;BME280;29616;51.950;8.572;2023-08-07T01:00:47;99350.41;;;14.44;100.00
7441;BME280;29616;51.950;8.572;2023-08-07T01:03:16;99353.56;;;14.41;100.00
7441;BME280;29616;51.950;8.572;2023-08-07T01:05:44;99348.53;;;14.45;100.00
7441;BME280;29616;51.950;8.572;2023-08-07T01:08:13;99346.94;;;14.57;100.00
7441;BME280;29616;51.950;8.572;2023-08-07T01:10:56;99359.56;;;14.51;100.00
7441;BME280;29616;51.950;8.572;2023-08-07T01:13:37;99356.16;;;14.49;100.00
7441;BME280;29616;51.950;8.572;2023-08-07T01:16:17;99350.22;;;14.46;100.00
7441;BME280;29616;51.950;8.572;2023-08-07T01:18:47;99348.19;;;14.54;100.00
7441;BME280;29616;51.950;8.572;2023-08-07T01:21:18;99354.06;;;14.51;100.00
7441;BME280;29616;51.950;8.572;2023-08-07T01:23:48;99357.47;;;14.53;100.00
7441;BME280;29616;51.950;8.572;2023-08-07T01:26:19;99356.16;;;14.49;100.00
7441;BME280;29616;51.950;8.572;2023-08-07T01:28:54;99340.97;;;14.53;100.00
7441;BME280;29616;51.950;8.572;2023-08-07T01:31:27;99346.34;;;14.62;100.00
7441;BME280;29616;51.950;8.572;2023-08-07T01:34:01;99351.59;;;14.56;100.00
7441;BME280;29616;51.950;8.572;2023-08-07T01:36:32;99344.09;;;14.50;100.00
7441;BME280;29616;51.950;8.572;2023-08-07T01:39:05;99346.81;;;14.44;100.00
7441;BME280;29616;51.950;8.572;2023-08-07T01:41:36;99343.06;;;14.51;100.00
7441;BME280;29616;51.950;8.572;2023-08-07T01:44:05;99339.16;;;14.39;100.00
7441;BME280;29616;51.950;8.572;2023-08-07T01:46:33;99354.06;;;14.51;100.00
7441;BME280;29616;51.950;8.572;2023-08-07T01:49:02;99346.34;;;14.40;100.00
7441;BME280;29616;51.950;8.572;2023-08-07T01:51:31;99358.53;;;14.52;100.00
7441;BME280;29616;51.950;8.572;2023-08-07T01:53:59;99351.59;;;14.56;100.00
7441;BME280;29616;51.950;8.572;2023-08-07T01:56:29;99326.84;;;14.35;100.00
7441;BME280;29616;51.950;8.572;2023-08-07T01:58:58;99347.06;;;14.49;100.00
7441;BME280;29616;51.950;8.572;2023-08-07T02:01:26;99348.38;;;14.53;100.00
7441;BME280;29616;51.950;8.572;2023-08-07T02:03:54;99358.97;;;14.56;100.00
7441;BME280;29616;51.950;8.572;2023-08-07T02:06:25;99339.03;;;14.47;100.00
7441;BME280;29616;51.950;8.572;2023-08-07T02:08:53;99354.81;;;14.60;100.00
7441;BME280;29616;51.950;8.572;2023-08-07T02:11:22;99336.28;;;14.47;100.00
7441;BME280;29616;51.950;8.572;2023-08-07T02:13:52;99357.59;;;14.67;100.00
7441;BME280;29616;51.950;8.572;2023-08-07T02:16:21;99353.56;;;14.63;100.00
7441;BME280;29616;51.950;8.572;2023-08-07T02:18:49;99348.19;;;14.54;100.00
7441;BME280;29616;51.950;8.572;2023-08-07T02:21:18;99359.38;;;14.53;100.00
7441;BME280;29616;51.950;8.572;2023-08-07T02:23:46;99340.06;;;14.46;100.00
7441;BME280;29616;51.950;8.572;2023-08-07T02:26:14;99347.94;;;14.49;100.00
7441;BME280;29616;51.950;8.572;2023-08-07T02:28:42;99342.16;;;14.44;100.00
7441;BME280;29616;51.950;8.572;2023-08-07T02:31:13;99347.47;;;14.46;100.00
7441;BME280;29616;51.950;8.572;2023-08-07T02:33:41;99351.06;;;14.46;100.00
7441;BME280;29616;51.950;8.572;2023-08-07T02:36:10;99328.44;;;14.30;100.00
7441;BME280;29616;51.950;8.572;2023-08-07T02:38:38;99337.06;;;14.41;100.00
7441;BME280;29616;51.950;8.572;2023-08-07T02:41:07;99351.44;;;14.43;100.00
7441;BME280;29616;51.950;8.572;2023-08-07T02:43:36;99358.66;;;14.44;100.00
7441;BME280;29616;51.950;8.572;2023-08-07T02:46:05;99348.69;;;14.43;100.00
7441;BME280;29616;51.950;8.572;2023-08-07T02:48:35;99331.69;;;14.33;100.00
7441;BME280;29616;51.950;8.572;2023-08-07T02:51:03;99342.47;;;14.35;100.00
7441;BME280;29616;51.950;8.572;2023-08-07T02:53:33;99358.31;;;14.54;100.00
7441;BME280;29616;51.950;8.572;2023-08-07T02:56:02;99351.06;;;14.46;100.00
7441;BME280;29616;51.950;8.572;2023-08-07T02:58:30;99332.47;;;14.48;100.00
7441;BME280;29616;51.950;8.572;2023-08-07T03:01:04;99346.56;;;14.60;100.00
7441;BME280;29616;51.950;8.572;2023-08-07T03:03:35;99343.16;;;14.58;100.00
7441;BME280;29616;51.950;8.572;2023-08-07T03:06:03;99346.81;;;14.65;100.00
7441;BME280;29616;51.950;8.572;2023-08-07T03:08:32;99337.19;;;14.54;100.00
7441;BME280;29616;51.950;8.572;2023-08-07T03:11:01;99297.25;;;14.37;100.00
7441;BME280;29616;51.950;8.572;2023-08-07T03:13:30;99351.59;;;14.56;100.00
7441;BME280;29616;51.950;8.572;2023-08-07T03:15:59;99343.06;;;14.51;100.00
7441;BME280;29616;51.950;8.572;2023-08-07T03:18:28;99347.81;;;14.57;100.00
7441;BME280;29616;51.950;8.572;2023-08-07T03:20:59;99348.22;;;14.61;100.00
7441;BME280;29616;51.950;8.572;2023-08-07T03:23:28;99343.97;;;14.58;100.00
7441;BME280;29616;51.950;8.572;2023-08-07T03:26:03;99347.03;;;14.64;100.00
7441;BME280;29616;51.950;8.572;2023-08-07T03:28:37;99344.91;;;14.66;100.00
7441;BME280;29616;51.950;8.572;2023-08-07T03:31:06;99349.34;;;14.67;100.00
7441;BME280;29616;51.950;8.572;2023-08-07T03:33:36;99337.69;;;14.65;100.00
7441;BME280;29616;51.950;8.572;2023-08-07T03:36:06;99333.91;;;14.66;100.00
7441;BME280;29616;51.950;8.572;2023-08-07T03:38:36;99354.47;;;14.70;100.00
7441;BME280;29616;51.950;8.572;2023-08-07T03:41:05;99360.59;;;14.72;100.00
7441;BME280;29616;51.950;8.572;2023-08-07T03:43:35;99360.22;;;14.75;100.00
7441;BME280;29616;51.950;8.572;2023-08-07T03:46:04;99337.31;;;14.68;100.00
7441;BME280;29616;51.950;8.572;2023-08-07T03:48:32;99330.53;;;14.64;100.00
7441;BME280;29616;51.950;8.572;2023-08-07T03:51:03;99348.31;;;14.68;100.00
7441;BME280;29616;51.950;8.572;2023-08-07T03:53:38;99356.81;;;14.73;100.00
7441;BME280;29616;51.950;8.572;2023-08-07T03:56:06;99355.41;;;14.77;100.00
7441;BME280;29616;51.950;8.572;2023-08-07T03:58:35;99358.31;;;14.75;100.00
7441;BME280;29616;51.950;8.572;2023-08-07T04:01:04;99333.66;;;14.61;100.00
7441;BME280;29616;51.950;8.572;2023-08-07T04:03:32;99358.16;;;14.77;100.00
7441;BME280;29616;51.950;8.572;2023-08-07T04:06:01;99359.91;;;14.84;100.00
7441;BME280;29616;51.950;8.572;2023-08-07T04:08:30;99351.72;;;14.70;100.00
7441;BME280;29616;51.950;8.572;2023-08-07T04:11:01;99354.31;;;14.78;100.00
7441;BME280;29616;51.950;8.572;2023-08-07T04:13:31;99355.19;;;14.78;100.00
7441;BME280;29616;51.950;8.572;2023-08-07T04:16:00;99356.50;;;14.82;100.00
7441;BME280;29616;51.950;8.572;2023-08-07T04:18:29;99357.41;;;14.89;100.00
7441;BME280;29616;51.950;8.572;2023-08-07T04:21:00;99361.66;;;14.92;100.00
7441;BME280;29616;51.950;8.572;2023-08-07T04:23:31;99340.19;;;14.81;100.00
7441;BME280;29616;51.950;8.572;2023-08-07T04:26:01;99366.75;;;14.95;100.00
7441;BME280;29616;51.950;8.572;2023-08-07T04:28:29;99362.31;;;14.94;100.00
7441;BME280;29616;51.950;8.572;2023-08-07T04:30:58;99363.28;;;14.86;100.00
7441;BME280;29616;51.950;8.572;2023-08-07T04:33:28;99359.44;;;14.81;100.00
7441;BME280;29616;51.950;8.572;2023-08-07T04:35:57;99369.19;;;14.83;100.00
7441;BME280;29616;51.950;8.572;2023-08-07T04:38:26;99365.00;;;14.87;100.00
7441;BME280;29616;51.950;8.572;2023-08-07T04:40:54;99361.94;;;14.76;100.00
7441;BME280;29616;51.950;8.572;2023-08-07T04:43:24;99358.53;;;14.74;100.00
7441;BME280;29616;51.950;8.572;2023-08-07T04:45:53;99361.59;;;14.85;100.00
7441;BME280;29616;51.950;8.572;2023-08-07T04:48:22;99353.81;;;14.68;100.00
7441;BME280;29616;51.950;8.572;2023-08-07T04:50:52;99371.47;;;14.80;100.00
7441;BME280;29616;51.950;8.572;2023-08-07T04:53:21;99376.59;;;14.83;100.00
7441;BME280;29616;51.950;8.572;2023-08-07T04:55:49;99392.38;;;14.95;100.00
7441;BME280;29616;51.950;8.572;2023-08-07T04:58:18;99385.31;;;14.86;100.00
7441;BME280;29616;51.950;8.572;2023-08-07T05:00:53;99385.31;;;14.86;100.00
7441;BME280;29616;51.950;8.572;2023-08-07T05:03:22;99361.72;;;14.77;100.00
7441;BME280;29616;51.950;8.572;2023-08-07T05:05:50;99385.31;;;14.86;100.00
7441;BME280;29616;51.950;8.572;2023-08-07T05:08:19;99387.06;;;14.94;100.00
7441;BME280;29616;51.950;8.572;2023-08-07T05:10:48;99401.06;;;14.99;100.00
7441;BME280;29616;51.950;8.572;2023-08-07T05:13:17;99399.66;;;15.03;100.00
7441;BME280;29616;51.950;8.572;2023-08-07T05:15:48;99393.47;;;15.01;100.00
7441;BME280;29616;51.950;8.572;2023-08-07T05:18:17;99407.56;;;15.12;100.00
7441;BME280;29616;51.950;8.572;2023-08-07T05:20:46;99407.75;;;15.11;100.00
7441;BME280;29616;51.950;8.572;2023-08-07T05:23:15;99402.50;;;15.16;100.00
7441;BME280;29616;51.950;8.572;2023-08-07T05:25:45;99396.63;;;15.19;100.00
7441;BME280;29616;51.950;8.572;2023-08-07T05:28:16;99410.22;;;15.27;100.00
7441;BME280;29616;51.950;8.572;2023-08-07T05:30:45;99410.16;;;15.21;100.00
7441;BME280;29616;51.950;8.572;2023-08-07T05:33:15;99400.91;;;15.28;100.00
7441;BME280;29616;51.950;8.572;2023-08-07T05:35:44;99406.06;;;15.38;100.00
7441;BME280;29616;51.950;8.572;2023-08-07T05:38:12;99416.38;;;15.29;100.00
7441;BME280;29616;51.950;8.572;2023-08-07T05:40:41;99410.88;;;15.29;100.00
7441;BME280;29616;51.950;8.572;2023-08-07T05:43:10;99393.59;;;15.14;100.00
7441;BME280;29616;51.950;8.572;2023-08-07T05:45:39;99415.72;;;15.27;100.00
7441;BME280;29616;51.950;8.572;2023-08-07T05:48:10;99417.81;;;15.25;100.00
7441;BME280;29616;51.950;8.572;2023-08-07T05:50:40;99428.44;;;15.28;100.00
7441;BME280;29616;51.950;8.572;2023-08-07T05:53:09;99420.69;;;15.17;100.00
7441;BME280;29616;51.950;8.572;2023-08-07T05:55:39;99437.75;;;15.27;100.00
7441;BME280;29616;51.950;8.572;2023-08-07T05:58:09;99431.03;;;15.36;100.00
7441;BME280;29616;51.950;8.572;2023-08-07T06:00:38;99434.91;;;15.42;100.00
7441;BME280;29616;51.950;8.572;2023-08-07T06:03:07;99440.22;;;15.43;100.00
7441;BME280;29616;51.950;8.572;2023-08-07T06:05:35;99421.25;;;15.27;100.00
7441;BME280;29616;51.950;8.572;2023-08-07T06:08:05;99435.78;;;15.21;100.00
7441;BME280;29616;51.950;8.572;2023-08-07T06:10:34;99439.41;;;15.22;100.00
7441;BME280;29616;51.950;8.572;2023-08-07T06:13:04;99441.94;;;15.23;100.00
7441;BME280;29616;51.950;8.572;2023-08-07T06:15:32;99428.97;;;15.17;100.00
7441;BME280;29616;51.950;8.572;2023-08-07T06:18:02;99448.38;;;15.30;100.00
7441;BME280;29616;51.950;8.572;2023-08-07T06:20:30;99441.94;;;15.23;100.00
7441;BME280;29616;51.950;8.572;2023-08-07T06:22:59;99435.13;;;15.19;100.00
7441;BME280;29616;51.950;8.572;2023-08-07T06:25:29;99460.06;;;15.39;100.00
7441;BME280;29616;51.950;8.572;2023-08-07T06:27:57;99442.59;;;15.25;100.00
7441;BME280;29616;51.950;8.572;2023-08-07T06:30:26;99450.69;;;15.33;100.00
7441;BME280;29616;51.950;8.572;2023-08-07T06:32:54;99452.41;;;15.55;100.00
7441;BME280;29616;51.950;8.572;2023-08-07T06:35:24;99458.00;;;15.68;100.00
7441;BME280;29616;51.950;8.572;2023-08-07T06:37:52;99441.03;;;15.65;100.00
7441;BME280;29616;51.950;8.572;2023-08-07T06:40:21;99463.13;;;15.71;100.00
7441;BME280;29616;51.950;8.572;2023-08-07T06:42:51;99444.06;;;15.70;100.00
7441;BME280;29616;51.950;8.572;2023-08-07T06:45:21;99459.81;;;15.83;100.00
7441;BME280;29616;51.950;8.572;2023-08-07T06:47:50;99438.38;;;15.50;100.00
7441;BME280;29616;51.950;8.572;2023-08-07T06:50:18;99457.94;;;15.90;100.00
7441;BME280;29616;51.950;8.572;2023-08-07T06:52:47;99459.41;;;16.20;100.00
7441;BME280;29616;51.950;8.572;2023-08-07T06:55:17;99437.44;;;15.99;100.00
7441;BME280;29616;51.950;8.572;2023-08-07T06:57:46;99467.38;;;16.49;100.00
7441;BME280;29616;51.950;8.572;2023-08-07T07:00:16;99468.69;;;16.53;100.00
7441;BME280;29616;51.950;8.572;2023-08-07T07:02:45;99462.09;;;16.07;100.00
7441;BME280;29616;51.950;8.572;2023-08-07T07:05:14;99468.50;;;15.86;100.00
7441;BME280;29616;51.950;8.572;2023-08-07T07:07:46;99479.75;;;15.85;100.00
7441;BME280;29616;51.950;8.572;2023-08-07T07:10:14;99470.44;;;15.86;100.00
7441;BME280;29616;51.950;8.572;2023-08-07T07:12:43;99471.88;;;15.82;100.00
7441;BME280;29616;51.950;8.572;2023-08-07T07:15:12;99474.63;;;15.82;100.00
7441;BME280;29616;51.950;8.572;2023-08-07T07:17:42;99427.25;;;15.37;100.00
7441;BME280;29616;51.950;8.572;2023-08-07T07:20:12;99476.53;;;15.53;100.00
7441;BME280;29616;51.950;8.572;2023-08-07T07:22:40;99474.69;;;15.60;100.00
7441;BME280;29616;51.950;8.572;2023-08-07T07:25:09;99483.03;;;15.73;100.00
7441;BME280;29616;51.950;8.572;2023-08-07T07:27:39;99490.03;;;15.69;100.00
7441;BME280;29616;51.950;8.572;2023-08-07T07:30:09;99491.47;;;15.65;100.00
7441;BME280;29616;51.950;8.572;2023-08-07T07:32:39;99470.06;;;15.67;100.00
7441;BME280;29616;51.950;8.572;2023-08-07T07:35:09;99472.44;;;15.70;100.00
7441;BME280;29616;51.950;8.572;2023-08-07T07:37:38;99483.03;;;15.73;100.00
7441;BME280;29616;51.950;8.572;2023-08-07T07:40:09;99491.00;;;16.24;100.00
7441;BME280;29616;51.950;8.572;2023-08-07T07:42:38;99496.09;;;16.55;100.00
7441;BME280;29616;51.950;8.572;2023-08-07T07:45:07;99494.91;;;16.36;100.00
7441;BME280;29616;51.950;8.572;2023-08-07T07:47:36;99500.66;;;16.48;100.00
7441;BME280;29616;51.950;8.572;2023-08-07T07:50:07;99489.34;;;16.70;100.00
7441;BME280;29616;51.950;8.572;2023-08-07T07:52:37;99492.13;;;16.70;100.00
7441;BME280;29616;51.950;8.572;2023-08-07T07:55:06;99504.75;;;16.52;100.00
7441;BME280;29616;51.950;8.572;2023-08-07T07:57:36;99494.59;;;16.18;100.00
7441;BME280;29616;51.950;8.572;2023-08-07T08:00:06;99493.44;;;15.99;100.00
7441;BME280;29616;51.950;8.572;2023-08-07T08:02:40;99503.03;;;15.82;100.00
7441;BME280;29616;51.950;8.572;2023-08-07T08:05:11;99494.53;;;15.77;100.00
7441;BME280;29616;51.950;8.572;2023-08-07T08:07:42;99508.63;;;15.89;100.00
7441;BME280;29616;51.950;8.572;2023-08-07T08:10:10;99510.66;;;15.80;100.00
7441;BME280;29616;51.950;8.572;2023-08-07T08:12:40;99507.44;;;15.76;100.00
7441;BME280;29616;51.950;8.572;2023-08-07T08:15:09;99515.31;;;15.80;100.00
7441;BME280;29616;51.950;8.572;2023-08-07T08:17:38;99519.16;;;15.85;100.00
7441;BME280;29616;51.950;8.572;2023-08-07T08:20:09;99519.81;;;16.15;100.00
7441;BME280;29616;51.950;8.572;2023-08-07T08:22:37;99535.84;;;16.73;100.00
7441;BME280;29616;51.950;8.572;2023-08-07T08:25:07;99523.69;;;17.22;100.00
7441;BME280;29616;51.950;8.572;2023-08-07T08:27:36;99533.44;;;17.18;100.00
7441;BME280;29616;51.950;8.572;2023-08-07T08:30:07;99522.59;;;17.10;100.00
7441;BME280;29616;51.950;8.572;2023-08-07T08:32:36;99522.63;;;17.23;100.00
7441;BME280;29616;51.950;8.572;2023-08-07T08:35:05;99518.66;;;17.65;100.00
7441;BME280;29616;51.950;8.572;2023-08-07T08:37:34;99530.47;;;18.57;100.00
7441;BME280;29616;51.950;8.572;2023-08-07T08:40:03;99525.75;;;20.27;100.00
7441;BME280;29616;51.950;8.572;2023-08-07T08:42:35;99527.00;;;20.06;100.00
7441;BME280;29616;51.950;8.572;2023-08-07T08:45:05;99540.63;;;18.69;100.00
7441;BME280;29616;51.950;8.572;2023-08-07T08:47:36;99539.94;;;17.90;100.00
7441;BME280;29616;51.950;8.572;2023-08-07T08:50:09;99545.81;;;17.48;100.00
7441;BME280;29616;51.950;8.572;2023-08-07T08:52:43;99546.16;;;17.06;100.00
7441;BME280;29616;51.950;8.572;2023-08-07T08:55:13;99561.66;;;16.59;100.00
7441;BME280;29616;51.950;8.572;2023-08-07T08:57:43;99563.50;;;16.18;100.00
7441;BME280;29616;51.950;8.572;2023-08-07T09:00:14;99545.94;;;15.91;100.00
7441;BME280;29616;51.950;8.572;2023-08-07T09:02:46;99551.22;;;15.93;100.00
7441;BME280;29616;51.950;8.572;2023-08-07T09:05:17;99583.75;;;16.04;100.00
7441;BME280;29616;51.950;8.572;2023-08-07T09:07:48;99584.06;;;16.50;100.00
7441;BME280;29616;51.950;8.572;2023-08-07T09:10:17;99580.06;;;16.93;100.00
7441;BME280;29616;51.950;8.572;2023-08-07T09:12:55;99565.16;;;17.48;100.00
7441;BME280;29616;51.950;8.572;2023-08-07T09:15:26;99551.16;;;18.28;100.00
7441;BME280;29616;51.950;8.572;2023-08-07T09:17:56;99568.38;;;18.30;100.00
7441;BME280;29616;51.950;8.572;2023-08-07T09:20:28;99578.13;;;19.16;100.00
7441;BME280;29616;51.950;8.572;2023-08-07T09:22:57;99570.50;;;19.81;100.00
7441;BME280;29616;51.950;8.572;2023-08-07T09:25:30;99574.69;;;20.64;100.00
7441;BME280;29616;51.950;8.572;2023-08-07T09:28:04;99556.41;;;20.75;100.00
7441;BME280;29616;51.950;8.572;2023-08-07T09:30:36;99553.72;;;20.25;100.00
7441;BME280;29616;51.950;8.572;2023-08-07T09:33:05;99575.50;;;19.97;100.00
7441;BME280;29616;51.950;8.572;2023-08-07T09:35:34;99575.91;;;19.69;100.00
7441;BME280;29616;51.950;8.572;2023-08-07T09:38:03;99594.50;;;19.24;100.00
7441;BME280;29616;51.950;8.572;2023-08-07T09:40:32;99596.41;;;19.68;100.00
7441;BME280;29616;51.950;8.572;2023-08-07T09:43:02;99586.59;;;19.28;100.00
7441;BME280;29616;51.950;8.572;2023-08-07T09:45:31;99588.69;;;18.88;100.00
7441;BME280;29616;51.950;8.572;2023-08-07T09:48:05;99610.09;;;17.89;100.00
7441;BME280;29616;51.950;8.572;2023-08-07T09:50:34;99605.84;;;17.93;100.00
7441;BME280;29616;51.950;8.572;2023-08-07T09:53:03;99624.13;;;18.07;100.00
7441;BME280;29616;51.950;8.572;2023-08-07T09:55:32;99626.25;;;18.05;100.00
7441;BME280;29616;51.950;8.572;2023-08-07T09:58:03;99631.38;;;18.22;100.00
7441;BME280;29616;51.950;8.572;2023-08-07T10:00:34;99642.84;;;18.32;100.00
7441;BME280;29616;51.950;8.572;2023-08-07T10:03:03;99614.34;;;18.38;100.00
7441;BME280;29616;51.950;8.572;2023-08-07T10:05:33;99629.06;;;19.15;100.00
7441;BME280;29616;51.950;8.572;2023-08-07T10:08:02;99640.25;;;19.40;100.00
7441;BME280;29616;51.950;8.572;2023-08-07T10:10:32;99610.34;;;19.86;100.00
7441;BME280;29616;51.950;8.572;2023-08-07T10:13:03;99619.25;;;19.95;100.00
7441;BME280;29616;51.950;8.572;2023-08-07T10:15:33;99609.06;;;19.89;100.00
7441;BME280;29616;51.950;8.572;2023-08-07T10:18:02;99624.22;;;20.42;100.00
7441;BME280;29616;51.950;8.572;2023-08-07T10:20:32;99636.16;;;21.04;100.00
7441;BME280;29616;51.950;8.572;2023-08-07T10:23:06;99619.50;;;20.86;100.00
7441;BME280;29616;51.950;8.572;2023-08-07T10:25:38;99650.91;;;20.43;100.00
7441;BME280;29616;51.950;8.572;2023-08-07T10:28:13;99626.25;;;21.14;100.00
7441;BME280;29616;51.950;8.572;2023-08-07T10:30:43;99614.06;;;21.45;100.00
7441;BME280;29616;51.950;8.572;2023-08-07T10:33:13;99634.47;;;21.39;100.00
7441;BME280;29616;51.950;8.572;2023-08-07T10:35:48;99598.53;;;21.08;100.00
7441;BME280;29616;51.950;8.572;2023-08-07T10:38:20;99646.03;;;19.76;100.00
7441;BME280;29616;51.950;8.572;2023-08-07T10:41:01;99675.19;;;17.98;100.00
7441;BME280;29616;51.950;8.572;2023-08-07T10:43:37;99681.38;;;16.65;100.00
7441;BME280;29616;51.950;8.572;2023-08-07T10:46:07;99681.59;;;16.42;100.00
7441;BME280;29616;51.950;8.572;2023-08-07T10:48:41;99669.19;;;16.53;100.00
7441;BME280;29616;51.950;8.572;2023-08-07T10:51:13;99672.19;;;16.30;100.00
7441;BME280;29616;51.950;8.572;2023-08-07T10:53:44;99675.47;;;16.19;100.00
7441;BME280;29616;51.950;8.572;2023-08-07T10:56:17;99682.91;;;16.46;100.00
7441;BME280;29616;51.950;8.572;2023-08-07T10:58:50;99664.13;;;16.56;100.00
7441;BME280;29616;51.950;8.572;2023-08-07T11:01:40;99643.19;;;16.41;100.00
7441;BME280;29616;51.950;8.572;2023-08-07T11:04:10;99658.25;;;17.54;100.00
7441;BME280;29616;51.950;8.572;2023-08-07T11:06:41;99690.06;;;18.10;100.00
7441;BME280;29616;51.950;8.572;2023-08-07T11:09:10;99681.34;;;18.79;100.00
7441;BME280;29616;51.950;8.572;2023-08-07T11:11:40;99692.53;;;19.23;100.00
7441;BME280;29616;51.950;8.572;2023-08-07T11:14:13;99673.16;;;19.23;100.00
7441;BME280;29616;51.950;8.572;2023-08-07T11:16:42;99686.75;;;19.82;100.00
7441;BME280;29616;51.950;8.572;2023-08-07T11:19:13;99643.22;;;19.83;100.00
7441;BME280;29616;51.950;8.572;2023-08-07T11:21:42;99678.28;;;19.71;100.00
7441;BME280;29616;51.950;8.572;2023-08-07T11:24:13;99695.59;;;19.02;100.00
7441;BME280;29616;51.950;8.572;2023-08-07T11:26:43;99706.16;;;17.74;100.00
7441;BME280;29616;51.950;8.572;2023-08-07T11:29:17;99739.78;;;15.33;100.00
7441;BME280;29616;51.950;8.572;2023-08-07T11:31:47;99744.06;;;15.06;100.00
7441;BME280;29616;51.950;8.572;2023-08-07T11:34:17;99724.91;;;15.13;100.00
7441;BME280;29616;51.950;8.572;2023-08-07T11:36:46;99735.97;;;15.63;100.00
7441;BME280;29616;51.950;8.572;2023-08-07T11:39:15;99739.53;;;16.21;100.00
7441;BME280;29616;51.950;8.572;2023-08-07T11:41:47;99734.44;;;17.29;100.00
7441;BME280;29616;51.950;8.572;2023-08-07T11:44:22;99728.22;;;17.61;100.00
7441;BME280;29616;51.950;8.572;2023-08-07T11:46:51;99723.63;;;17.94;100.00
7441;BME280;29616;51.950;8.572;2023-08-07T11:49:21;99728.38;;;18.27;100.00
7441;BME280;29616;51.950;8.572;2023-08-07T11:51:50;99727.53;;;18.33;100.00
7441;BME280;29616;51.950;8.572;2023-08-07T11:54:19;99713.31;;;18.49;100.00
7441;BME280;29616;51.950;8.572;2023-08-07T11:56:48;99727.78;;;18.77;100.00
7441;BME280;29616;51.950;8.572;2023-08-07T11:59:17;99716.78;;;19.48;100.00
7441;BME280;29616;51.950;8.572;2023-08-07T12:01:47;99724.59;;;19.64;100.00
7441;BME280;29616;51.950;8.572;2023-08-07T12:04:18;99726.22;;;19.78;100.00
7441;BME280;29616;51.950;8.572;2023-08-07T12:06:54;99734.53;;;19.78;100.00
7441;BME280;29616;51.950;8.572;2023-08-07T12:09:26;99739.84;;;19.09;100.00
7441;BME280;29616;51.950;8.572;2023-08-07T12:11:56;99737.38;;;19.65;100.00
7441;BME280;29616;51.950;8.572;2023-08-07T12:14:29;99743.34;;;20.69;100.00
7441;BME280;29616;51.950;8.572;2023-08-07T12:17:01;99582.09;;;19.96;100.00
7441;BME280;29616;51.950;8.572;2023-08-07T12:19:38;99739.81;;;20.80;100.00
7441;BME280;29616;51.950;8.572;2023-08-07T12:22:11;99708.75;;;21.32;100.00
7441;BME280;29616;51.950;8.572;2023-08-07T12:24:41;99731.91;;;21.44;100.00
7441;BME280;29616;51.950;8.572;2023-08-07T12:27:10;99728.91;;;21.46;100.00
7441;BME280;29616;51.950;8.572;2023-08-07T12:29:39;99681.53;;;20.98;100.00
7441;BME280;29616;51.950;8.572;2023-08-07T12:32:10;99736.50;;;22.05;100.00
7441;BME280;29616;51.950;8.572;2023-08-07T12:34:38;99707.66;;;22.29;100.00
7441;BME280;29616;51.950;8.572;2023-08-07T12:37:10;99739.34;;;22.28;100.00
7441;BME280;29616;51.950;8.572;2023-08-07T12:39:40;99730.31;;;22.32;100.00
7441;BME280;29616;51.950;8.572;2023-08-07T12:42:12;99726.25;;;21.69;100.00
7441;BME280;29616;51.950;8.572;2023-08-07T12:44:43;99729.25;;;20.70;100.00
7441;BME280;29616;51.950;8.572;2023-08-07T12:47:13;99737.56;;;19.70;100.00
7441;BME280;29616;51.950;8.572;2023-08-07T12:49:43;99745.91;;;18.60;100.00
7441;BME280;29616;51.950;8.572;2023-08-07T12:52:13;99754.31;;;18.26;100.00
7441;BME280;29616;51.950;8.572;2023-08-07T12:54:42;99754.41;;;18.52;100.00
7441;BME280;29616;51.950;8.572;2023-08-07T12:57:11;99764.13;;;19.40;100.00
7441;BME280;29616;51.950;8.572;2023-08-07T12:59:40;99755.00;;;20.52;100.00
7441;BME280;29616;51.950;8.572;2023-08-07T13:02:08;99744.69;;;21.09;100.00
7441;BME280;29616;51.950;8.572;2023-08-07T13:04:39;99752.28;;;21.20;100.00
7441;BME280;29616;51.950;8.572;2023-08-07T13:07:10;99767.91;;;21.94;100.00
7441;BME280;29616;51.950;8.572;2023-08-07T13:09:39;99721.63;;;21.27;100.00
7441;BME280;29616;51.950;8.572;2023-08-07T13:12:08;99766.47;;;21.12;100.00
7441;BME280;29616;51.950;8.572;2023-08-07T13:14:37;99778.41;;;21.92;100.00